Bookmark and Share
Track history (hours):
 

Virtuous Striker

Last reported at 2014-Apr-07 22:12 UTC. Time now 2014-Apr-20 18:57 UTC.
Position N 29°19' W 094°39'.
Warning: this ship's position is 12 days out of date.

Length 190 m; draft 12 m.

Type: Cargo ship. MMSI: 311025100.

NotesDate/timePositionNaut miles runAvg speedWind from/ knotsBaromVisibWave heightAir tempDewpointWater temp
2014-Apr-07 22:12N 29°19' W 094°39'710.2
2014-Apr-07 21:31N 29°21' W 094°46'9 9.5
2014-Apr-07 20:33N 29°29' W 094°51'9 9.2
2014-Apr-07 19:33N 29°36' W 094°57'12 5.9
2014-Apr-07 17:33N 29°44' W 095°07'3 2.4
2014-Apr-07 16:24N 29°45' W 095°10'0 0.0
2014-Apr-07 15:30N 29°45' W 095°10'0 0.0
2014-Apr-07 14:33N 29°45' W 095°10'0 0.0
2014-Apr-07 13:33N 29°45' W 095°10'0 0.0
2014-Apr-07 11:33N 29°45' W 095°10'0 0.0
2014-Apr-07 10:33N 29°45' W 095°10'0 0.0
2014-Apr-07 09:33N 29°45' W 095°10'0 0.0
2014-Apr-07 08:33N 29°45' W 095°10'0 0.0
2014-Apr-07 07:27N 29°45' W 095°10'0 0.0
2014-Apr-07 06:33N 29°45' W 095°10'0 0.0
2014-Apr-07 05:33N 29°45' W 095°10'0 0.0
2014-Apr-07 04:33N 29°45' W 095°10'0 0.0
2014-Apr-07 03:33N 29°45' W 095°10'0 0.0
2014-Apr-07 02:33N 29°45' W 095°10'0 0.0
2014-Apr-07 01:33N 29°45' W 095°10'0 0.0
2014-Apr-07 00:33N 29°45' W 095°10'0 0.0
2014-Apr-06 23:33N 29°45' W 095°10'0 0.0
2014-Apr-06 22:33N 29°45' W 095°10'0 0.0
2014-Apr-06 21:30N 29°45' W 095°10'0 0.0
2014-Apr-06 20:33N 29°45' W 095°10'0 0.0
2014-Apr-06 19:33N 29°45' W 095°10'0 0.0
2014-Apr-06 18:33N 29°45' W 095°10'0 0.0
2014-Apr-06 17:33N 29°45' W 095°10'0 0.0
2014-Apr-06 16:33N 29°45' W 095°10'0 0.0
2014-Apr-06 15:33N 29°45' W 095°10'0 0.0
2014-Apr-06 14:33N 29°45' W 095°10'0 0.0
2014-Apr-06 13:33N 29°45' W 095°10'0 0.0
2014-Apr-06 12:30N 29°45' W 095°10'0 0.0
2014-Apr-06 11:33N 29°45' W 095°10'0 0.0
2014-Apr-06 10:33N 29°45' W 095°10'0 0.0
2014-Apr-06 09:33N 29°45' W 095°10'0 0.0
2014-Apr-06 08:33N 29°45' W 095°10'0 0.0
2014-Apr-06 07:33N 29°45' W 095°10'1 1.2
2014-Apr-06 06:33N 29°44' W 095°09'6 5.9
2014-Apr-06 05:33N 29°44' W 095°02'1010.0
2014-Apr-06 04:33N 29°35' W 094°56'1211.9
2014-Apr-06 03:33N 29°25' W 094°50'  

Dump ship's entire track history

sailing weather and tide predictions

Virtuous Striker — C6XX6 — position and weather